CYQD

The Pas Airport

The Pas, Manitoba, Canada
TAF CYQD 210638Z 2107/2119 12006KT P6SM BKN100 BKN220 FM211400 13008KT P6SM SCT090 BECMG 2114/2116 13012KT RMK FCST BASED ON AUTO OBS. NXT FCST BY 211300Z
Issued Valid From Valid To
Jul-21 @ 06:38 UTC
(3 hours ago)
Jul-21 @ 07:00 UTC
(3 hours ago)
Jul-21 @ 19:00 UTC
(in 9 hours)
Jul-21 @ 07:00 to Jul-21 @ 14:00
TAF CYQD 210638Z 2107/2119 12006KT P6SM BKN100 BKN220
Wind Visibility Clouds
120° at 6 knots Greater than 6 miles
  • Broken at 10,000' AGL
  • Broken at 22,000' AGL
From Jul-21 @ 14:00 to Jul-21 @ 19:00
FM211400 13008KT P6SM SCT090
Wind Visibility Clouds
130° at 8 knots Greater than 6 miles
  • Scattered at 9,000' AGL
Becoming Jul-21 @ 14:00 to Jul-21 @ 19:00
BECMG 2114/2116 13012KT RMK FCST BASED ON AUTO OBS. NXT FCST BY 211300Z
Wind Visibility Clouds
130° at 12 knots Greater than 6 miles
  • Scattered at 9,000' AGL
TAF CYQD 210638Z 2107/2119 12006KT P6SM BKN100 BKN220 FM211400 13008KT P6SM SCT090 BECMG 2114/2116 13012KT RMK FCST BASED ON AUTO OBS. NXT FCST BY 211300Z
Issued Jul-21 @ 06:38 UTC
(3 hours ago)
Valid From Jul-21 @ 07:00 UTC
(3 hours ago)
Valid To Jul-21 @ 19:00 UTC
(in 9 hours)
Jul-21 @ 07:00 - Jul-21 @ 14:00
Wind Visibility
120° at 6 knots Greater than 6 miles
Clouds
  • Broken at 10,000' AGL
  • Broken at 22,000' AGL
From Jul-21 @ 14:00 - Jul-21 @ 19:00
Wind Visibility
130° at 8 knots Greater than 6 miles
Clouds
  • Scattered at 9,000' AGL
Becoming Jul-21 @ 14:00 - Jul-21 @ 19:00
Wind Visibility
130° at 12 knots Greater than 6 miles
Clouds
  • Scattered at 9,000' AGL